createdAt,value
2018-12-16T00:00:41.831Z,11.53
2018-12-16T00:03:10.104Z,11.17
2018-12-16T00:05:38.324Z,10.43
2018-12-16T00:08:06.478Z,10.43
2018-12-16T00:10:34.701Z,11.43
2018-12-16T00:13:02.885Z,13.57
2018-12-16T00:15:31.198Z,11.40
2018-12-16T00:17:59.371Z,10.07
2018-12-16T00:20:27.670Z,10.83
2018-12-16T00:22:55.885Z,13.90
2018-12-16T00:25:24.232Z,11.47
2018-12-16T00:27:52.410Z,11.07
2018-12-16T00:30:20.812Z,11.60
2018-12-16T00:32:48.998Z,11.17
2018-12-16T00:35:17.158Z,11.73
2018-12-16T00:37:45.397Z,12.17
2018-12-16T00:40:13.834Z,13.90
2018-12-16T00:42:42.009Z,10.67
2018-12-16T00:45:10.355Z,11.40
2018-12-16T00:47:38.575Z,11.20
2018-12-16T00:50:07.067Z,11.60
2018-12-16T00:52:36.586Z,10.63
2018-12-16T00:55:05.370Z,10.60
2018-12-16T00:57:33.683Z,13.07
2018-12-16T01:00:01.828Z,12.83
2018-12-16T01:02:35.274Z,12.93
2018-12-16T01:05:03.675Z,12.70
2018-12-16T01:07:31.997Z,11.23
2018-12-16T01:10:00.260Z,15.03
2018-12-16T01:12:28.541Z,12.40
2018-12-16T01:14:56.753Z,12.17
2018-12-16T01:17:24.977Z,13.87
2018-12-16T01:19:53.287Z,13.80
2018-12-16T01:22:21.623Z,14.33
2018-12-16T01:24:49.911Z,14.77
2018-12-16T01:27:18.830Z,16.83
2018-12-16T01:29:47.157Z,14.63
2018-12-16T01:32:15.287Z,19.40
2018-12-16T01:34:43.458Z,16.50
2018-12-16T01:37:11.704Z,14.57
2018-12-16T01:39:39.917Z,13.67
2018-12-16T01:42:08.213Z,17.37
2018-12-16T01:44:36.471Z,14.63
2018-12-16T01:47:04.791Z,14.47
2018-12-16T01:49:33.035Z,15.13
2018-12-16T01:52:01.388Z,16.07
2018-12-16T01:54:29.666Z,15.07
2018-12-16T01:56:57.942Z,15.20
2018-12-16T01:59:26.111Z,14.07
2018-12-16T02:01:55.220Z,16.13
2018-12-16T02:04:24.485Z,14.47
2018-12-16T02:06:52.869Z,13.37
2018-12-16T02:09:21.140Z,15.23
2018-12-16T02:11:49.358Z,13.50
2018-12-16T02:14:17.582Z,13.73
2018-12-16T02:16:45.805Z,14.23
2018-12-16T02:19:14.120Z,17.10
2018-12-16T02:21:42.279Z,16.37
2018-12-16T02:24:10.415Z,14.20
2018-12-16T02:26:38.655Z,16.00
2018-12-16T02:29:06.973Z,15.13
2018-12-16T02:31:35.233Z,12.90
2018-12-16T02:34:03.433Z,16.77
2018-12-16T02:36:31.662Z,14.13
2018-12-16T02:38:59.887Z,13.23
2018-12-16T02:41:28.187Z,15.73
2018-12-16T02:43:56.556Z,15.57
2018-12-16T02:46:24.697Z,16.80
2018-12-16T02:48:53.029Z,14.27
2018-12-16T02:51:21.266Z,19.77
2018-12-16T02:53:49.526Z,14.50
2018-12-16T02:56:17.707Z,15.87
2018-12-16T02:58:45.996Z,16.67
2018-12-16T03:01:14.360Z,15.13
2018-12-16T03:03:42.752Z,13.77
2018-12-16T03:06:10.939Z,15.50
2018-12-16T03:08:39.183Z,15.13
2018-12-16T03:11:07.419Z,14.97
2018-12-16T03:13:35.663Z,13.87
2018-12-16T03:16:03.872Z,14.77
2018-12-16T03:18:32.013Z,16.67
2018-12-16T03:21:00.211Z,18.17
2018-12-16T03:23:28.541Z,15.30
2018-12-16T03:25:56.825Z,16.37
2018-12-16T03:28:24.982Z,13.50
2018-12-16T03:30:53.207Z,15.40
2018-12-16T03:33:21.346Z,15.50
2018-12-16T03:35:49.505Z,16.70
2018-12-16T03:38:17.754Z,16.67
2018-12-16T03:40:46.043Z,14.87
2018-12-16T03:43:14.226Z,17.13
2018-12-16T03:45:42.383Z,20.20
2018-12-16T03:48:10.536Z,16.43
2018-12-16T03:50:38.769Z,16.93
2018-12-16T03:53:06.945Z,16.30
2018-12-16T03:55:35.121Z,16.47
2018-12-16T03:58:03.464Z,17.17
2018-12-16T04:00:31.712Z,16.37
2018-12-16T04:02:59.868Z,16.93
2018-12-16T04:05:28.133Z,17.47
2018-12-16T04:07:56.321Z,17.20
2018-12-16T04:10:24.494Z,15.03
2018-12-16T04:12:52.757Z,14.93
2018-12-16T04:15:20.989Z,17.70
2018-12-16T04:17:49.223Z,17.20
2018-12-16T04:20:17.822Z,16.03
2018-12-16T04:22:46.013Z,19.03
2018-12-16T04:25:14.196Z,17.83
2018-12-16T04:27:42.375Z,16.93
2018-12-16T04:30:10.660Z,16.87
2018-12-16T04:32:38.799Z,16.07
2018-12-16T04:35:07.112Z,15.40
2018-12-16T04:37:35.539Z,16.40
2018-12-16T04:40:04.144Z,14.10
2018-12-16T04:42:32.316Z,14.70
2018-12-16T04:45:00.462Z,17.10
2018-12-16T04:47:28.659Z,14.77
2018-12-16T04:49:56.827Z,15.10
2018-12-16T04:52:24.999Z,15.97
2018-12-16T04:54:53.149Z,16.10
2018-12-16T04:57:21.380Z,15.50
2018-12-16T04:59:49.578Z,16.67
2018-12-16T05:02:17.922Z,14.33
2018-12-16T05:04:46.228Z,15.67
2018-12-16T05:07:14.472Z,18.80
2018-12-16T05:09:42.641Z,16.57
2018-12-16T05:12:10.943Z,15.13
2018-12-16T05:14:39.180Z,19.07
2018-12-16T05:17:07.425Z,16.10
2018-12-16T05:19:35.624Z,15.07
2018-12-16T05:22:03.864Z,16.87
2018-12-16T05:24:32.056Z,15.37
2018-12-16T05:27:00.202Z,18.13
2018-12-16T05:29:28.542Z,14.53
2018-12-16T05:31:56.712Z,15.53
2018-12-16T05:34:24.882Z,15.20
2018-12-16T05:36:53.056Z,16.07
2018-12-16T05:39:21.308Z,17.13
2018-12-16T05:41:49.504Z,17.23
2018-12-16T05:44:17.680Z,15.33
2018-12-16T05:46:45.979Z,16.17
2018-12-16T05:49:14.232Z,13.83
2018-12-16T05:51:42.413Z,15.03
2018-12-16T05:54:10.654Z,18.60
2018-12-16T05:56:38.779Z,15.67
2018-12-16T05:59:06.944Z,15.43
2018-12-16T06:01:35.124Z,14.43
2018-12-16T06:04:03.407Z,15.67
2018-12-16T06:06:31.622Z,17.03
2018-12-16T06:08:59.834Z,13.97
2018-12-16T06:11:28.161Z,16.73
2018-12-16T06:13:56.393Z,16.10
2018-12-16T06:16:24.546Z,15.20
2018-12-16T06:18:52.684Z,13.90
2018-12-16T06:21:20.897Z,14.63
2018-12-16T06:23:55.316Z,14.83
2018-12-16T06:26:19.513Z,17.60
2018-12-16T06:28:47.882Z,15.57
2018-12-16T06:31:16.108Z,17.23
2018-12-16T06:33:44.282Z,17.53
2018-12-16T06:36:12.444Z,15.90
2018-12-16T06:38:40.625Z,15.60
2018-12-16T06:41:08.816Z,15.30
2018-12-16T06:43:36.980Z,14.33
2018-12-16T06:46:05.225Z,17.70
2018-12-16T06:48:33.416Z,18.00
2018-12-16T06:51:01.726Z,19.90
2018-12-16T06:53:29.940Z,16.63
2018-12-16T06:55:58.082Z,16.07
2018-12-16T06:58:26.358Z,16.90
2018-12-16T07:00:54.623Z,14.87
2018-12-16T07:03:22.776Z,19.03
2018-12-16T07:05:51.047Z,16.73
2018-12-16T07:08:19.190Z,18.97
2018-12-16T07:10:47.445Z,16.67
2018-12-16T07:13:15.686Z,15.23
2018-12-16T07:15:44.036Z,20.60
2018-12-16T07:18:12.310Z,17.27
2018-12-16T07:20:40.635Z,17.30
2018-12-16T07:23:08.862Z,20.83
2018-12-16T07:25:36.995Z,15.93
2018-12-16T07:28:05.471Z,18.60
2018-12-16T07:30:33.648Z,19.87
2018-12-16T07:33:01.900Z,19.07
2018-12-16T07:35:30.113Z,16.30
2018-12-16T07:37:58.268Z,18.40
2018-12-16T07:40:26.656Z,18.10
2018-12-16T07:42:55.183Z,22.07
2018-12-16T07:45:23.515Z,19.33
2018-12-16T07:47:51.871Z,18.97
2018-12-16T07:50:20.154Z,18.53
2018-12-16T07:52:48.465Z,18.43
2018-12-16T07:55:16.910Z,16.37
2018-12-16T07:57:45.130Z,17.30
2018-12-16T08:00:13.436Z,20.30
2018-12-16T08:02:41.644Z,18.03
2018-12-16T08:05:09.885Z,20.43
2018-12-16T08:07:38.136Z,17.87
2018-12-16T08:10:06.412Z,18.47
2018-12-16T08:12:35.076Z,20.70
2018-12-16T08:15:03.421Z,18.80
2018-12-16T08:17:31.581Z,19.47
2018-12-16T08:19:59.765Z,18.63
2018-12-16T08:22:27.959Z,20.90
2018-12-16T08:24:56.131Z,18.27
2018-12-16T08:27:24.325Z,19.97
2018-12-16T08:29:52.525Z,16.53
2018-12-16T08:32:20.676Z,16.77
2018-12-16T08:34:48.825Z,17.73
2018-12-16T08:37:17.052Z,16.27
2018-12-16T08:39:45.449Z,17.93
2018-12-16T08:42:13.592Z,19.50
2018-12-16T08:44:41.944Z,20.37
2018-12-16T08:47:10.210Z,16.10
2018-12-16T08:49:39.767Z,16.53
2018-12-16T08:52:07.923Z,16.53
2018-12-16T08:54:36.064Z,18.00
2018-12-16T08:57:04.367Z,17.13
2018-12-16T08:59:32.580Z,13.97
2018-12-16T09:02:00.812Z,13.10
2018-12-16T09:04:29.069Z,16.10
2018-12-16T09:06:57.390Z,13.83
2018-12-16T09:09:26.064Z,14.00
2018-12-16T09:11:55.109Z,15.57
2018-12-16T09:14:23.316Z,12.87
2018-12-16T09:16:51.562Z,12.40
2018-12-16T09:19:19.870Z,13.13
2018-12-16T09:21:48.068Z,13.00
2018-12-16T09:24:16.343Z,13.83
2018-12-16T09:26:44.543Z,14.30
2018-12-16T09:29:12.888Z,14.07
2018-12-16T09:31:41.180Z,12.50
2018-12-16T09:34:09.517Z,13.90
2018-12-16T09:36:37.766Z,13.63
2018-12-16T09:39:07.944Z,13.47
2018-12-16T09:41:36.137Z,13.00
2018-12-16T09:44:04.434Z,13.17
2018-12-16T09:46:32.719Z,12.93
2018-12-16T09:49:00.953Z,11.77
2018-12-16T09:51:29.227Z,11.73
2018-12-16T09:53:57.537Z,11.80
2018-12-16T09:56:26.517Z,11.93
2018-12-16T09:58:54.700Z,11.27
2018-12-16T10:01:23.148Z,11.63
2018-12-16T10:03:52.494Z,13.53
2018-12-16T10:06:20.685Z,10.70
2018-12-16T10:08:48.837Z,14.20
2018-12-16T10:11:17.170Z,12.47
2018-12-16T10:13:45.393Z,12.00
2018-12-16T10:16:13.793Z,13.17
2018-12-16T10:18:42.076Z,11.67
2018-12-16T10:21:10.389Z,11.00
2018-12-16T10:23:38.587Z,10.70
2018-12-16T10:26:06.853Z,15.23
2018-12-16T10:28:35.237Z,12.97
2018-12-16T10:31:03.517Z,13.13
2018-12-16T10:33:31.866Z,12.13
2018-12-16T10:36:00.149Z,10.80
2018-12-16T10:38:28.345Z,12.27
2018-12-16T10:40:56.589Z,11.60
2018-12-16T10:43:24.735Z,11.47
2018-12-16T10:45:52.976Z,12.10
2018-12-16T10:48:21.169Z,11.27
2018-12-16T10:50:49.467Z,17.17
2018-12-16T10:53:17.703Z,11.20
2018-12-16T10:55:46.015Z,10.90
2018-12-16T10:58:14.200Z,10.90
2018-12-16T11:00:47.843Z,11.87
2018-12-16T11:03:22.660Z,11.73
2018-12-16T11:08:43.903Z,11.13
2018-12-16T11:11:12.148Z,10.43
2018-12-16T11:13:40.336Z,11.10
2018-12-16T11:16:08.541Z,14.47
2018-12-16T11:18:43.363Z,10.67
2018-12-16T11:21:11.603Z,11.37
2018-12-16T11:23:39.796Z,11.77
2018-12-16T11:26:08.875Z,12.43
2018-12-16T11:28:37.153Z,12.23
2018-12-16T11:31:05.408Z,12.70
2018-12-16T11:33:33.609Z,11.50
2018-12-16T11:36:01.902Z,13.60
2018-12-16T11:38:30.077Z,10.93
2018-12-16T11:40:58.342Z,10.57
2018-12-16T11:43:26.500Z,11.83
2018-12-16T11:45:54.660Z,12.20
2018-12-16T11:48:22.948Z,11.83
2018-12-16T11:50:51.258Z,11.27
2018-12-16T11:53:19.514Z,11.87
2018-12-16T11:55:47.752Z,14.67
2018-12-16T11:58:15.892Z,13.57
2018-12-16T12:00:44.180Z,13.10
2018-12-16T12:03:12.430Z,12.17
2018-12-16T12:05:40.634Z,12.10
2018-12-16T12:08:08.871Z,13.17
2018-12-16T12:10:37.044Z,11.80
2018-12-16T12:13:06.663Z,13.90
2018-12-16T12:15:35.434Z,13.10
2018-12-16T12:20:25.981Z,12.20
2018-12-16T12:22:54.324Z,12.27
2018-12-16T12:25:22.826Z,14.53
2018-12-16T12:27:51.050Z,16.05
2018-12-16T12:30:19.295Z,12.33
2018-12-16T12:32:49.191Z,12.50
2018-12-16T12:35:17.686Z,12.03
2018-12-16T12:37:45.921Z,12.97
2018-12-16T12:40:14.286Z,12.40
2018-12-16T12:42:42.506Z,12.67
2018-12-16T12:45:10.817Z,13.37
2018-12-16T12:47:39.095Z,12.67
2018-12-16T12:50:08.325Z,13.73
2018-12-16T12:52:36.617Z,12.93
2018-12-16T12:55:05.244Z,11.97
2018-12-16T12:57:33.505Z,13.60
2018-12-16T13:00:01.760Z,11.93
2018-12-16T13:02:30.109Z,13.50
2018-12-16T13:04:58.265Z,11.87
2018-12-16T13:07:26.469Z,15.83
2018-12-16T13:09:54.679Z,13.00
2018-12-16T13:12:22.999Z,12.27
2018-12-16T13:14:51.157Z,17.67
2018-12-16T13:17:19.465Z,13.30
2018-12-16T13:19:47.748Z,13.93
2018-12-16T13:22:17.990Z,13.33
2018-12-16T13:24:57.478Z,13.33
2018-12-16T13:27:25.613Z,14.97
2018-12-16T13:29:53.955Z,14.53
2018-12-16T13:32:23.284Z,14.73
2018-12-16T13:34:53.167Z,12.83
2018-12-16T13:37:21.772Z,16.10
2018-12-16T13:39:51.486Z,13.77
2018-12-16T13:42:19.889Z,16.27
2018-12-16T13:44:48.125Z,14.90
2018-12-16T13:47:16.367Z,15.33
2018-12-16T13:49:44.546Z,16.60
2018-12-16T13:52:12.781Z,14.40
2018-12-16T13:54:40.937Z,12.77
2018-12-16T13:57:09.146Z,14.40
2018-12-16T13:59:37.324Z,16.20
2018-12-16T14:02:05.601Z,14.40
2018-12-16T14:04:33.811Z,16.20
2018-12-16T14:07:09.241Z,13.23
2018-12-16T14:09:39.146Z,14.33
2018-12-16T14:12:18.928Z,13.97
2018-12-16T14:14:47.370Z,13.30
2018-12-16T14:17:24.800Z,15.37
2018-12-16T14:19:53.051Z,13.80
2018-12-16T14:22:22.116Z,13.37
2018-12-16T14:24:50.377Z,13.13
2018-12-16T14:27:18.700Z,12.60
2018-12-16T14:29:47.633Z,13.40
2018-12-16T15:29:41.171Z,14.80
2018-12-16T15:32:09.506Z,14.23
2018-12-16T15:34:37.723Z,16.57
2018-12-16T15:37:06.017Z,13.97
2018-12-16T15:39:36.289Z,15.23
2018-12-16T15:42:04.654Z,16.40
2018-12-16T15:44:32.975Z,14.77
2018-12-16T15:47:02.569Z,15.37
2018-12-16T15:49:30.978Z,15.03
2018-12-16T15:52:00.591Z,15.30
2018-12-16T15:54:28.844Z,15.50
2018-12-16T15:56:57.369Z,16.63
2018-12-16T15:59:25.601Z,14.93
2018-12-16T16:01:53.878Z,14.23
2018-12-16T16:04:42.252Z,14.27
2018-12-16T16:07:10.720Z,14.57
2018-12-16T16:12:35.697Z,14.40
2018-12-16T16:15:04.388Z,15.73
2018-12-16T16:17:32.742Z,15.40
2018-12-16T16:20:03.080Z,16.50
2018-12-16T16:22:36.941Z,15.43
2018-12-16T16:25:06.775Z,16.43
2018-12-16T16:27:35.054Z,15.63
2018-12-16T16:30:03.939Z,14.27
2018-12-16T16:32:32.221Z,14.73
2018-12-16T16:35:02.384Z,15.50
2018-12-16T16:37:30.605Z,15.87
2018-12-16T16:39:59.001Z,15.13
2018-12-16T16:42:28.780Z,15.60
2018-12-16T16:44:57.964Z,15.07
2018-12-16T16:47:26.543Z,14.80
2018-12-16T16:49:56.147Z,14.60
2018-12-16T16:52:26.859Z,17.03
2018-12-16T16:54:55.782Z,15.20
2018-12-16T16:57:24.115Z,15.63
2018-12-16T16:59:53.402Z,15.00
2018-12-16T17:02:21.659Z,15.53
2018-12-16T17:04:50.031Z,14.90
2018-12-16T17:07:18.246Z,15.83
2018-12-16T17:09:46.855Z,14.13
2018-12-16T17:12:15.994Z,15.77
2018-12-16T17:14:44.825Z,17.30
2018-12-16T17:17:14.083Z,17.13
2018-12-16T17:19:42.765Z,17.37
2018-12-16T17:22:11.880Z,16.97
2018-12-16T17:24:40.563Z,17.63
2018-12-16T17:27:09.143Z,15.13
2018-12-16T17:29:51.098Z,15.30
2018-12-16T17:32:22.236Z,16.23
2018-12-16T17:37:58.159Z,17.27
2018-12-16T17:40:43.486Z,18.90
2018-12-16T17:43:11.821Z,16.77
2018-12-16T17:45:41.320Z,16.80
2018-12-16T17:48:09.613Z,17.00
2018-12-16T17:50:37.839Z,16.80
2018-12-16T17:53:08.265Z,16.93
2018-12-16T17:55:36.969Z,16.33
2018-12-16T17:58:12.730Z,15.13
2018-12-16T18:00:44.788Z,16.97
2018-12-16T18:03:17.278Z,17.67
2018-12-16T18:05:46.363Z,14.57
2018-12-16T18:09:16.769Z,16.87
2018-12-16T18:11:49.064Z,19.20
2018-12-16T18:14:18.197Z,16.40
2018-12-16T18:16:46.580Z,15.53
2018-12-16T18:19:14.858Z,16.47
2018-12-16T18:21:43.200Z,21.40
2018-12-16T18:24:11.408Z,15.33
2018-12-16T18:26:44.062Z,22.00
2018-12-16T18:29:10.038Z,17.57
2018-12-16T18:31:38.636Z,18.13
2018-12-16T18:34:10.490Z,17.00
2018-12-16T18:36:39.128Z,19.03
2018-12-16T18:39:09.595Z,17.80
2018-12-16T18:41:38.098Z,17.70
2018-12-16T18:44:06.954Z,18.67
2018-12-16T18:46:35.570Z,17.03
2018-12-16T18:50:28.595Z,18.57
2018-12-16T18:52:57.107Z,18.10
2018-12-16T18:55:25.394Z,16.93
2018-12-16T18:57:53.606Z,16.83
2018-12-16T19:00:22.066Z,19.40
2018-12-16T19:02:51.752Z,19.53
2018-12-16T19:05:20.656Z,20.67
2018-12-16T19:07:48.984Z,21.57
2018-12-16T19:10:17.297Z,17.90
2018-12-16T19:12:46.674Z,17.63
2018-12-16T19:15:15.790Z,17.27
2018-12-16T19:17:49.077Z,19.83
2018-12-16T19:20:25.624Z,16.93
2018-12-16T19:22:58.414Z,17.43
2018-12-16T19:25:26.873Z,20.20
2018-12-16T19:27:55.093Z,17.30
2018-12-16T19:30:48.054Z,18.20
2018-12-16T19:33:23.252Z,19.23
2018-12-16T19:35:52.974Z,18.57
2018-12-16T19:38:29.879Z,19.53
2018-12-16T19:41:02.792Z,20.47
2018-12-16T19:43:31.850Z,21.07
2018-12-16T19:46:11.773Z,18.13
2018-12-16T19:48:40.276Z,19.13
2018-12-16T19:51:13.447Z,19.73
2018-12-16T19:53:43.280Z,19.10
2018-12-16T19:56:17.268Z,18.10
2018-12-16T19:58:48.235Z,18.30
2018-12-16T20:04:08.771Z,21.23
2018-12-16T20:06:46.672Z,18.43
2018-12-16T20:09:18.023Z,19.10
2018-12-16T20:11:49.411Z,19.00
2018-12-16T20:14:19.221Z,21.83
2018-12-16T20:16:47.453Z,19.67
2018-12-16T20:19:23.733Z,19.23
2018-12-16T20:21:52.327Z,21.17
2018-12-16T20:24:20.516Z,20.07
2018-12-16T20:26:52.280Z,19.47
2018-12-16T20:29:20.480Z,19.50
2018-12-16T20:31:49.330Z,20.53
2018-12-16T20:34:18.009Z,19.93
2018-12-16T20:36:46.463Z,19.37
2018-12-16T20:39:14.874Z,21.33
2018-12-16T20:41:43.230Z,20.27
2018-12-16T20:44:11.638Z,18.93
2018-12-16T20:46:39.918Z,18.10
2018-12-16T20:49:08.369Z,18.80
2018-12-16T20:51:36.702Z,21.27
2018-12-16T20:54:07.932Z,19.63
2018-12-16T20:56:36.526Z,19.33
2018-12-16T20:59:11.546Z,20.67
2018-12-16T21:01:44.601Z,19.90
2018-12-16T21:04:13.415Z,19.20
2018-12-16T21:06:45.724Z,21.37
2018-12-16T21:09:19.781Z,21.53
2018-12-16T21:11:53.505Z,18.93
2018-12-16T21:14:30.519Z,19.27
2018-12-16T21:17:09.492Z,18.73
2018-12-16T21:19:38.883Z,19.33
2018-12-16T21:22:11.247Z,18.67
2018-12-16T21:24:43.804Z,20.30
2018-12-16T21:27:15.459Z,18.53
2018-12-16T21:29:43.905Z,19.40
2018-12-16T21:32:13.482Z,20.20
2018-12-16T21:34:41.824Z,19.67
2018-12-16T21:37:10.116Z,18.70
2018-12-16T21:39:38.285Z,17.87
2018-12-16T21:42:06.587Z,18.97
2018-12-16T21:44:34.809Z,20.23
2018-12-16T21:47:03.098Z,20.23
2018-12-16T21:49:31.332Z,20.43
2018-12-16T21:53:24.193Z,20.77
2018-12-16T21:55:53.559Z,19.63
2018-12-16T21:58:24.210Z,20.23
2018-12-16T22:00:59.805Z,18.27
2018-12-16T22:03:32.101Z,19.07
2018-12-16T22:06:07.914Z,20.37
2018-12-16T22:08:36.208Z,18.80
2018-12-16T22:11:05.579Z,19.67
2018-12-16T22:13:34.129Z,18.97
2018-12-16T22:16:02.359Z,22.00
2018-12-16T22:18:30.652Z,20.73
2018-12-16T22:20:58.942Z,24.53
2018-12-16T22:23:27.173Z,20.13
2018-12-16T22:25:55.431Z,20.20
2018-12-16T22:28:24.013Z,20.60
2018-12-16T22:30:52.281Z,20.03
2018-12-16T22:33:20.496Z,20.00
2018-12-16T22:35:50.184Z,20.37
2018-12-16T22:38:20.483Z,22.13
2018-12-16T22:40:48.898Z,19.67
2018-12-16T22:43:17.433Z,21.73
2018-12-16T22:45:46.758Z,19.00
2018-12-16T22:48:15.430Z,21.60
2018-12-16T22:50:43.782Z,20.20
2018-12-16T22:53:11.957Z,19.73
2018-12-16T22:55:40.237Z,21.67
2018-12-16T22:58:08.532Z,19.70
2018-12-16T23:00:41.079Z,19.40
2018-12-16T23:03:09.937Z,21.97
2018-12-16T23:05:42.260Z,22.00
2018-12-16T23:08:12.681Z,19.10
2018-12-16T23:10:40.939Z,19.23
2018-12-16T23:13:13.385Z,22.20
2018-12-16T23:15:41.690Z,23.30
2018-12-16T23:18:09.928Z,18.93
2018-12-16T23:20:38.182Z,21.83
2018-12-16T23:23:06.473Z,20.53
2018-12-16T23:25:34.754Z,19.10
2018-12-16T23:28:04.153Z,18.77
2018-12-16T23:30:32.332Z,19.50
2018-12-16T23:33:00.591Z,23.80
2018-12-16T23:35:28.829Z,22.30
2018-12-16T23:37:57.017Z,19.87
2018-12-16T23:40:25.256Z,22.97
2018-12-16T23:42:53.551Z,20.90
2018-12-16T23:45:21.744Z,21.07
2018-12-16T23:47:50.123Z,20.07
2018-12-16T23:50:18.383Z,21.97
2018-12-16T23:52:46.620Z,21.40
2018-12-16T23:55:14.992Z,20.90
2018-12-16T23:57:43.245Z,23.57
